Terminal Aerodrome Forecast
Issued by NWS

Home | Current Version | Previous Version | Text Only | Print | Product List | Glossary On
Versions: 1 2 3 4 5 6 7 8 9 10 11 12 13
080
FTUS42 TJSJ 301723
TAFJMZ
TAF
TJMZ 301723Z 3018/3118 28008KT P6SM VCSH SCT030 SCT050
     FM302300 07008KT P6SM FEW030 SCT050
     FM311300 08012KT P6SM VCTS BKN030CB BKN050
     FM311630 VRB12G20KT P6SM -TSRA BKN025CB BKN040
      AMD NOT SKED=

USA.gov is the U.S. government's official web portal to all federal, state and local government web resources and services.